Gilmantown, New York
Current Conditions -  °F | °C
As of 2:55 PM on Sunday 21 Dec 2014 (Local Time) from KNY0 Reporting Station
Overcast Overcast  
Wind Chill: 24°   Ceiling: 2900
Heat Index: 29°   Visibility: 10mi
Dew Point: 21°   Wind: 5mph
Humidity: 72%   Direction: 220°SW
Pressure: 30.28"   Gusts: NA
Location:  43.4734°N, 74.2732°W
Report Text: KNY0 211955Z AUTO 22004KT 10SM OVC029 M02/M06 A3028 RMK AO2 T10181062
Loading
Personal Weather Stations






























Interactive Weather Map New forecast layout! Learn more

10-Day Weather Forecast

Advertisements
Track Severe Weather on mobile